Time;durP1;ratioP1;P1;durP2;ratioP2;P2;SDS_P1;SDS_P2;PMS_P1;PMS_P2;Temp;Humidity;BMP_temperature;BMP_pressure;BME280_temperature;BME280_humidity;BME280_pressure;Samples;Min_cycle;Max_cycle;Signal;HPM_P1;HPM_P2
2023/03/18 00:01:24;;;;;;;0.35;0.20;;;21.00;69.20;;;;;;5065181;28;20100;-70
2023/03/18 00:03:50;;;;;;;0.52;0.30;;;21.10;69.30;;;;;;5032909;28;20532;-70
2023/03/18 00:06:17;;;;;;;2.13;0.30;;;21.10;69.30;;;;;;5033104;28;20532;-70
2023/03/18 00:08:44;;;;;;;0.43;0.30;;;21.10;69.30;;;;;;5076008;28;20037;-70
2023/03/18 00:11:11;;;;;;;0.75;0.30;;;21.10;69.30;;;;;;5050465;28;20017;-70
2023/03/18 00:13:37;;;;;;;0.32;0.15;;;21.10;69.30;;;;;;5051795;28;20435;-70
2023/03/18 00:16:04;;;;;;;0.50;0.22;;;21.20;69.40;;;;;;5051602;28;20074;-70
2023/03/18 00:18:30;;;;;;;1.23;0.30;;;21.20;69.40;;;;;;5051617;28;20070;-70
2023/03/18 00:20:57;;;;;;;4.80;0.65;;;21.20;69.40;;;;;;5051521;28;20029;-70
2023/03/18 00:23:25;;;;;;;0.32;0.30;;;21.20;69.30;;;;;;5051679;28;20135;-70
2023/03/18 00:25:51;;;;;;;1.48;0.30;;;21.20;69.30;;;;;;5051072;28;20100;-70
2023/03/18 00:28:17;;;;;;;1.05;0.40;;;21.20;69.30;;;;;;5051425;28;20033;-70
2023/03/18 00:30:43;;;;;;;0.47;0.22;;;21.20;69.40;;;;;;5052537;28;20401;-70
2023/03/18 00:33:09;;;;;;;0.60;0.40;;;21.20;69.30;;;;;;5051282;28;20068;-70
2023/03/18 00:35:35;;;;;;;0.32;0.25;;;21.20;69.40;;;;;;5051525;28;20369;-70
2023/03/18 00:38:02;;;;;;;1.75;0.40;;;21.30;69.50;;;;;;5051068;28;20032;-70
2023/03/18 00:40:41;;;;;;;0.60;0.22;;;21.30;69.50;;;;;;5050961;28;20025;-70
2023/03/18 00:43:08;;;;;;;1.58;0.30;;;21.30;69.50;;;;;;5051197;28;20041;-70
2023/03/18 00:45:38;;;;;;;2.63;0.20;;;21.30;69.50;;;;;;5051439;28;20095;-70
2023/03/18 00:48:04;;;;;;;0.63;0.40;;;21.30;69.50;;;;;;5051038;28;20040;-70
2023/03/18 00:50:29;;;;;;;0.28;0.15;;;21.30;69.40;;;;;;5050953;28;20021;-70
2023/03/18 00:52:55;;;;;;;1.10;0.35;;;21.30;69.40;;;;;;5052174;28;20025;-70
2023/03/18 00:55:21;;;;;;;0.50;0.28;;;21.30;69.40;;;;;;5050923;28;20370;-70
2023/03/18 00:57:47;;;;;;;2.20;0.25;;;21.30;69.40;;;;;;5051053;28;20573;-70
2023/03/18 01:00:15;;;;;;;2.53;0.60;;;21.30;69.40;;;;;;5051031;28;20025;-70
2023/03/18 01:02:42;;;;;;;0.98;0.40;;;21.40;70.40;;;;;;5050898;28;20028;-70
2023/03/18 01:05:10;;;;;;;0.30;0.30;;;21.40;69.40;;;;;;5052036;28;20029;-70
2023/03/18 01:07:36;;;;;;;4.30;0.30;;;21.40;69.40;;;;;;5050762;28;20495;-70
2023/03/18 01:10:03;;;;;;;0.40;0.20;;;21.40;69.40;;;;;;5051785;28;20104;-70
2023/03/18 01:12:28;;;;;;;1.27;0.43;;;21.40;69.40;;;;;;5052123;28;20021;-70
2023/03/18 01:14:54;;;;;;;0.28;0.20;;;21.40;69.30;;;;;;5050422;28;20029;-70
2023/03/18 01:17:19;;;;;;;0.50;0.30;;;21.40;69.40;;;;;;5064037;28;20234;-70
2023/03/18 01:19:47;;;;;;;0.35;0.30;;;21.40;69.40;;;;;;5032150;28;20502;-70
2023/03/18 01:22:13;;;;;;;0.77;0.32;;;21.40;69.30;;;;;;5065785;28;20025;-70
2023/03/18 01:24:39;;;;;;;0.82;0.35;;;21.50;69.30;;;;;;5051338;28;20388;-70
2023/03/18 01:27:05;;;;;;;0.70;0.30;;;21.50;69.30;;;;;;5067827;28;20036;-70
2023/03/18 01:29:30;;;;;;;0.60;0.35;;;21.50;69.30;;;;;;5068016;28;20449;-70
2023/03/18 01:31:56;;;;;;;0.32;0.20;;;21.50;69.30;;;;;;5051256;28;20119;-70
2023/03/18 01:34:22;;;;;;;0.80;0.40;;;21.50;69.30;;;;;;5067892;28;20611;-70
2023/03/18 01:36:48;;;;;;;0.68;0.20;;;21.50;69.30;;;;;;5035985;28;20109;-70
2023/03/18 01:39:14;;;;;;;0.40;0.30;;;21.50;69.30;;;;;;5067509;28;20092;-70
2023/03/18 01:41:40;;;;;;;0.95;0.35;;;21.50;69.30;;;;;;5051151;28;20119;-70
2023/03/18 01:44:12;;;;;;;0.20;0.20;;;21.50;69.20;;;;;;5067731;28;20549;-70
2023/03/18 01:46:43;;;;;;;0.47;0.33;;;21.60;69.30;;;;;;5050663;28;20040;-70
2023/03/18 01:49:17;;;;;;;0.43;0.22;;;21.50;69.20;;;;;;5067492;28;20230;-70
2023/03/18 01:51:47;;;;;;;0.45;0.35;;;21.50;69.20;;;;;;5067306;28;20451;-70
2023/03/18 01:54:13;;;;;;;0.13;0.10;;;21.50;69.20;;;;;;5050451;28;20071;-70
2023/03/18 01:56:39;;;;;;;0.40;0.15;;;21.50;69.20;;;;;;5067375;28;20436;-70
2023/03/18 01:59:05;;;;;;;0.30;0.20;;;21.50;69.30;;;;;;5050684;28;20087;-70
2023/03/18 02:01:54;;;;;;;6.10;0.70;;;21.50;69.20;;;;;;5050721;28;20019;-70
2023/03/18 02:04:22;;;;;;;0.32;0.17;;;21.60;69.40;;;;;;5048336;28;20025;-70
2023/03/18 02:06:47;;;;;;;0.30;0.10;;;21.60;69.40;;;;;;5067123;28;20021;-70
2023/03/18 02:09:13;;;;;;;0.45;0.20;;;21.60;69.40;;;;;;5050457;28;20029;-70
2023/03/18 02:11:41;;;;;;;0.28;0.25;;;21.60;69.40;;;;;;5054110;28;20092;-70
2023/03/18 02:14:08;;;;;;;0.22;0.22;;;21.60;69.40;;;;;;5053820;28;20075;-70
2023/03/18 02:16:39;;;;;;;0.50;0.17;;;21.60;69.30;;;;;;5039754;28;20504;-70
2023/03/18 02:19:32;;;;;;;1.55;0.40;;;21.60;69.40;;;;;;5050157;28;20033;-70
2023/03/18 02:22:01;;;;;;;0.55;0.20;;;21.60;69.30;;;;;;5034706;28;20025;-70
2023/03/18 02:24:48;;;;;;;0.38;0.20;;;21.60;69.40;;;;;;5035000;28;20033;-70
2023/03/18 02:27:21;;;;;;;0.47;0.20;;;21.60;69.40;;;;;;5048990;28;20021;-70
2023/03/18 02:29:47;;;;;;;0.30;0.20;;;21.60;69.30;;;;;;5034864;28;20497;-70
2023/03/18 02:32:13;;;;;;;0.38;0.20;;;21.60;69.30;;;;;;5050003;28;20031;-70
2023/03/18 02:34:39;;;;;;;0.40;0.30;;;21.70;69.30;;;;;;5065846;28;20401;-70
2023/03/18 02:37:06;;;;;;;2.65;0.20;;;21.70;69.30;;;;;;5066291;28;20109;-70
2023/03/18 02:39:32;;;;;;;0.20;0.20;;;21.70;69.30;;;;;;5066440;28;20025;-70
2023/03/18 02:41:58;;;;;;;0.63;0.30;;;21.70;69.20;;;;;;5034412;28;20060;-70
2023/03/18 02:44:24;;;;;;;0.30;0.17;;;21.70;69.30;;;;;;5066699;28;20064;-70
2023/03/18 02:46:54;;;;;;;3.03;0.30;;;21.70;69.20;;;;;;5034706;28;20440;-70
2023/03/18 02:49:20;;;;;;;1.73;0.32;;;21.70;69.20;;;;;;5034364;28;20029;-70
2023/03/18 02:51:45;;;;;;;1.70;0.40;;;21.70;69.20;;;;;;5034185;28;20065;-70
2023/03/18 02:54:16;;;;;;;1.48;0.30;;;21.70;69.20;;;;;;5066460;28;20061;-70
2023/03/18 02:56:42;;;;;;;0.30;0.20;;;21.70;69.20;;;;;;5049286;28;20064;-70
2023/03/18 02:59:08;;;;;;;0.70;0.20;;;21.70;69.20;;;;;;5066169;28;20037;-70
2023/03/18 03:01:34;;;;;;;0.28;0.20;;;21.70;69.20;;;;;;5066258;28;20009;-70
2023/03/18 03:04:00;;;;;;;0.55;0.20;;;21.70;69.20;;;;;;5066041;28;20531;-70
2023/03/18 03:06:26;;;;;;;0.47;0.20;;;21.70;69.20;;;;;;5034049;28;20040;-70
2023/03/18 03:08:51;;;;;;;0.20;0.10;;;21.70;70.20;;;;;;5061972;28;20110;-70
2023/03/18 03:11:17;;;;;;;0.65;0.30;;;21.80;70.20;;;;;;5052899;28;20028;-70
2023/03/18 03:13:46;;;;;;;0.60;0.38;;;21.70;69.10;;;;;;5052704;28;20520;-70
2023/03/18 03:16:15;;;;;;;0.40;0.20;;;21.70;69.10;;;;;;5052781;28;20029;-70
2023/03/18 03:18:41;;;;;;;1.00;0.30;;;21.80;69.10;;;;;;5052842;28;20025;-70
2023/03/18 03:21:07;;;;;;;0.32;0.30;;;21.80;69.10;;;;;;5052505;28;20036;-70
2023/03/18 03:23:33;;;;;;;0.80;0.20;;;21.80;69.10;;;;;;5052582;28;20045;-70
2023/03/18 03:25:59;;;;;;;2.58;0.22;;;21.80;69.10;;;;;;5052699;28;20110;-70
2023/03/18 03:28:25;;;;;;;0.32;0.30;;;21.80;69.20;;;;;;5052346;28;20032;-70
2023/03/18 03:30:51;;;;;;;0.20;0.20;;;21.80;69.10;;;;;;5052696;28;20046;-70
2023/03/18 03:33:17;;;;;;;0.68;0.10;;;21.80;69.10;;;;;;5052389;28;20100;-70
2023/03/18 03:35:42;;;;;;;0.28;0.20;;;21.80;69.10;;;;;;5053331;28;20094;-70
2023/03/18 03:38:09;;;;;;;0.77;0.10;;;21.80;69.30;;;;;;5053533;28;20032;-70
2023/03/18 03:40:35;;;;;;;0.38;0.20;;;21.80;69.20;;;;;;5052274;28;20477;-70
2023/03/18 03:43:00;;;;;;;2.33;0.28;;;21.80;69.20;;;;;;5052233;28;20100;-70
2023/03/18 03:45:26;;;;;;;0.57;0.20;;;21.80;69.20;;;;;;5053067;28;20063;-70
2023/03/18 03:47:52;;;;;;;0.20;0.20;;;21.80;69.20;;;;;;5052228;28;20053;-70
2023/03/18 03:50:18;;;;;;;0.50;0.30;;;21.80;69.20;;;;;;5053119;28;20052;-70
2023/03/18 03:52:44;;;;;;;1.88;0.20;;;21.80;69.20;;;;;;5052188;28;20075;-70
2023/03/18 03:55:11;;;;;;;0.75;0.20;;;21.70;69.20;;;;;;5051942;28;20031;-70
2023/03/18 03:57:37;;;;;;;0.47;0.35;;;21.80;69.20;;;;;;5052192;28;20068;-70
2023/03/18 04:00:06;;;;;;;0.22;0.13;;;21.80;69.20;;;;;;5051934;28;20504;-70
2023/03/18 04:02:31;;;;;;;0.70;0.32;;;21.80;69.20;;;;;;5051617;28;20021;-70
2023/03/18 04:04:59;;;;;;;0.65;0.20;;;21.80;69.10;;;;;;5051784;28;20421;-70
2023/03/18 04:07:24;;;;;;;0.10;0.10;;;21.80;69.10;;;;;;5052731;28;20017;-70
2023/03/18 04:09:50;;;;;;;0.88;0.30;;;21.80;69.20;;;;;;5052933;28;20025;-70
2023/03/18 04:12:18;;;;;;;0.63;0.20;;;21.80;69.20;;;;;;5052764;28;20021;-70
2023/03/18 04:14:45;;;;;;;0.17;0.13;;;21.80;69.20;;;;;;5051919;28;20049;-70
2023/03/18 04:17:11;;;;;;;0.32;0.20;;;21.80;69.30;;;;;;5033514;28;20021;-70
2023/03/18 04:19:38;;;;;;;0.95;0.20;;;21.80;69.20;;;;;;5032976;28;20112;-70
2023/03/18 04:22:04;;;;;;;0.90;0.20;;;21.80;69.30;;;;;;5064683;28;20018;-70
2023/03/18 04:24:29;;;;;;;0.30;0.20;;;21.80;69.30;;;;;;5032604;28;20037;-70
2023/03/18 04:26:55;;;;;;;2.20;0.32;;;21.80;69.30;;;;;;5032786;28;20049;-70
2023/03/18 04:29:21;;;;;;;1.23;0.20;;;21.80;69.30;;;;;;5032545;28;20026;-70
2023/03/18 04:31:47;;;;;;;0.77;0.30;;;21.80;69.30;;;;;;5064526;28;20021;-70
2023/03/18 04:34:12;;;;;;;0.20;0.20;;;21.80;69.30;;;;;;5047835;28;20100;-70
2023/03/18 04:36:38;;;;;;;1.38;0.20;;;21.80;69.30;;;;;;5031399;28;20476;-70
2023/03/18 04:39:04;;;;;;;0.55;0.28;;;21.80;69.30;;;;;;5032753;28;20112;-70
2023/03/18 04:41:29;;;;;;;0.20;0.20;;;21.80;70.30;;;;;;5032529;28;20163;-70
2023/03/18 04:43:56;;;;;;;1.08;0.20;;;21.90;69.30;;;;;;5064481;28;20038;-70
2023/03/18 04:46:22;;;;;;;0.43;0.30;;;21.80;69.30;;;;;;5032107;28;20508;-70
2023/03/18 04:48:47;;;;;;;0.22;0.13;;;21.80;69.20;;;;;;5064410;28;20034;-70
2023/03/18 04:51:14;;;;;;;1.35;0.25;;;21.80;69.30;;;;;;5064348;28;20041;-70
2023/03/18 04:53:39;;;;;;;5.53;0.30;;;21.80;69.20;;;;;;5032354;28;20032;-70
2023/03/18 04:56:06;;;;;;;0.43;0.20;;;21.80;69.20;;;;;;5031805;28;20025;-70
2023/03/18 04:58:31;;;;;;;0.77;0.20;;;21.80;69.20;;;;;;5063995;28;20030;-70
2023/03/18 05:00:57;;;;;;;0.43;0.20;;;21.80;69.20;;;;;;5064003;28;20512;-70
2023/03/18 05:03:22;;;;;;;1.48;0.20;;;21.80;69.20;;;;;;5032187;28;20030;-70
2023/03/18 05:05:48;;;;;;;0.43;0.30;;;21.80;69.20;;;;;;5064177;28;20033;-70
2023/03/18 05:08:15;;;;;;;0.28;0.20;;;21.80;69.30;;;;;;5071490;28;20095;-70
2023/03/18 05:10:41;;;;;;;0.80;0.30;;;21.80;69.40;;;;;;5083872;28;20039;-70
2023/03/18 05:13:06;;;;;;;0.65;0.20;;;21.80;69.40;;;;;;5052053;28;20095;-70
2023/03/18 05:15:32;;;;;;;0.30;0.20;;;21.80;69.40;;;;;;5084154;28;20025;-70
2023/03/18 05:17:58;;;;;;;0.50;0.20;;;21.80;69.50;;;;;;5050793;28;20078;-70
2023/03/18 05:20:24;;;;;;;0.47;0.30;;;21.90;69.50;;;;;;5050536;28;20374;-70
2023/03/18 05:22:51;;;;;;;1.25;0.10;;;21.80;69.50;;;;;;5052060;28;20036;-70
2023/03/18 05:25:17;;;;;;;1.45;0.30;;;21.80;69.40;;;;;;5050761;28;20559;-70
2023/03/18 05:27:43;;;;;;;0.20;0.20;;;21.80;69.50;;;;;;5050754;28;20058;-70
2023/03/18 05:30:09;;;;;;;0.73;0.30;;;21.80;69.50;;;;;;5051687;28;20049;-70
2023/03/18 05:32:35;;;;;;;0.40;0.13;;;21.80;69.40;;;;;;5050683;28;20032;-70
2023/03/18 05:35:02;;;;;;;0.57;0.13;;;21.80;69.50;;;;;;5051802;28;20021;-70
2023/03/18 05:37:28;;;;;;;2.50;0.43;;;21.80;69.40;;;;;;5050728;28;20104;-70
2023/03/18 05:39:54;;;;;;;0.65;0.20;;;21.80;69.50;;;;;;5050570;28;20096;-70
2023/03/18 05:42:19;;;;;;;0.32;0.10;;;21.80;69.40;;;;;;5051789;28;20101;-70
2023/03/18 05:44:45;;;;;;;0.80;0.28;;;21.90;69.50;;;;;;5050271;28;20110;-70
2023/03/18 05:47:11;;;;;;;0.30;0.20;;;21.80;69.50;;;;;;5050517;28;20389;-70
2023/03/18 05:49:36;;;;;;;1.45;0.20;;;21.80;69.50;;;;;;5051706;28;20025;-70
2023/03/18 05:52:02;;;;;;;0.17;0.10;;;21.80;69.50;;;;;;5051555;28;20045;-70
2023/03/18 05:54:28;;;;;;;0.45;0.20;;;21.80;69.50;;;;;;5050298;28;20032;-70
2023/03/18 05:56:54;;;;;;;0.43;0.10;;;21.80;69.60;;;;;;5050514;28;20075;-70
2023/03/18 05:59:20;;;;;;;0.63;0.20;;;21.80;69.70;;;;;;5051159;28;20104;-70
2023/03/18 06:01:47;;;;;;;0.20;0.10;;;21.80;69.70;;;;;;5050443;28;20561;-70
2023/03/18 06:04:14;;;;;;;0.10;0.10;;;21.80;69.70;;;;;;5050653;28;20049;-70
2023/03/18 06:06:39;;;;;;;0.50;0.20;;;21.80;69.70;;;;;;5051453;28;20020;-70
2023/03/18 06:09:07;;;;;;;0.28;0.20;;;21.80;69.80;;;;;;5053167;28;20033;-70
2023/03/18 06:11:32;;;;;;;0.17;0.10;;;21.80;69.80;;;;;;5087545;28;20021;-69
2023/03/18 06:13:58;;;;;;;0.57;0.25;;;21.80;69.90;;;;;;5087416;28;20036;-69
2023/03/18 06:16:24;;;;;;;0.08;0.08;;;21.80;69.80;;;;;;5042467;28;20079;-69
2023/03/18 06:18:50;;;;;;;1.65;0.10;;;21.80;69.90;;;;;;5067098;28;20021;-69
2023/03/18 06:21:15;;;;;;;0.28;0.13;;;21.80;69.90;;;;;;5067249;28;20081;-69
2023/03/18 06:23:41;;;;;;;0.20;0.20;;;21.80;69.90;;;;;;5067322;28;20017;-71
2023/03/18 06:26:07;;;;;;;0.52;0.20;;;21.80;70.00;;;;;;5074548;28;20393;-70
2023/03/18 06:28:33;;;;;;;0.30;0.20;;;21.80;70.00;;;;;;5053348;28;20024;-70
2023/03/18 06:31:00;;;;;;;1.45;0.28;;;21.80;69.90;;;;;;5054901;28;20028;-70
2023/03/18 06:33:26;;;;;;;1.88;0.17;;;21.80;70.00;;;;;;5055277;28;20500;-70
2023/03/18 06:35:53;;;;;;;1.73;0.73;;;21.80;69.80;;;;;;5053800;28;20032;-70
2023/03/18 06:38:19;;;;;;;0.63;0.25;;;21.80;69.70;;;;;;5055056;28;20036;-70
2023/03/18 06:40:45;;;;;;;0.28;0.10;;;21.80;69.70;;;;;;5037265;28;20111;-70
2023/03/18 06:43:11;;;;;;;0.57;0.22;;;21.70;69.60;;;;;;5053454;28;20104;-70
2023/03/18 06:45:37;;;;;;;1.52;0.40;;;21.70;69.70;;;;;;5053492;28;20108;-70
2023/03/18 06:48:03;;;;;;;0.80;0.20;;;21.70;69.70;;;;;;5052833;28;20136;-70
2023/03/18 06:50:29;;;;;;;0.75;0.20;;;21.70;69.80;;;;;;5052092;28;20029;-70
2023/03/18 06:52:54;;;;;;;0.20;0.13;;;21.60;69.80;;;;;;5051259;28;20025;-70
2023/03/18 06:55:20;;;;;;;2.03;0.45;;;21.60;69.80;;;;;;5051300;28;20021;-70
2023/03/18 06:57:46;;;;;;;0.85;0.20;;;21.60;69.90;;;;;;5050798;28;20397;-70
2023/03/18 07:00:12;;;;;;;0.65;0.20;;;21.50;69.90;;;;;;5051702;28;20409;-70
2023/03/18 07:02:38;;;;;;;1.90;0.20;;;21.50;69.90;;;;;;5045411;28;20021;-70
2023/03/18 07:05:04;;;;;;;0.40;0.28;;;21.50;70.10;;;;;;5051726;28;20560;-70
2023/03/18 07:07:30;;;;;;;2.22;0.20;;;21.50;70.20;;;;;;5050876;28;20143;-70
2023/03/18 07:09:55;;;;;;;1.23;0.28;;;21.40;70.20;;;;;;5034465;28;20098;-70
2023/03/18 07:12:21;;;;;;;1.00;0.20;;;21.40;70.30;;;;;;5051936;28;20021;-70
2023/03/18 07:14:47;;;;;;;0.50;0.30;;;21.40;70.40;;;;;;5051935;28;20061;-70
2023/03/18 07:17:13;;;;;;;1.00;0.38;;;21.30;71.40;;;;;;5052037;28;20385;-70
2023/03/18 07:19:39;;;;;;;0.35;0.10;;;21.30;70.40;;;;;;5050221;28;20065;-70
2023/03/18 07:22:05;;;;;;;3.42;0.20;;;21.30;70.50;;;;;;5050479;28;20025;-70
2023/03/18 07:24:30;;;;;;;0.88;0.30;;;21.20;70.40;;;;;;5050484;28;20025;-70
2023/03/18 07:26:56;;;;;;;2.45;0.30;;;21.20;70.60;;;;;;5051700;28;20013;-70
2023/03/18 07:29:22;;;;;;;2.47;0.50;;;21.20;70.70;;;;;;5051848;28;20028;-70
2023/03/18 07:31:48;;;;;;;5.38;0.40;;;21.20;70.80;;;;;;5050469;28;20048;-70
2023/03/18 07:34:17;;;;;;;0.75;0.15;;;21.20;70.80;;;;;;5051021;28;20067;-70
2023/03/18 07:36:44;;;;;;;0.30;0.20;;;21.10;70.80;;;;;;5050776;28;20013;-70
2023/03/18 07:39:09;;;;;;;1.33;0.25;;;21.10;70.90;;;;;;5050537;28;20568;-70
2023/03/18 07:41:35;;;;;;;0.75;0.30;;;21.10;71.00;;;;;;5050158;28;20100;-70
2023/03/18 07:44:02;;;;;;;0.38;0.13;;;21.00;71.00;;;;;;5050310;28;20025;-70
2023/03/18 07:46:27;;;;;;;0.60;0.30;;;21.00;71.10;;;;;;5051443;28;20017;-70
2023/03/18 07:48:53;;;;;;;1.05;0.28;;;21.00;71.00;;;;;;5050221;28;20047;-70
2023/03/18 07:51:19;;;;;;;1.02;0.30;;;21.00;71.00;;;;;;5051143;28;20554;-70
2023/03/18 07:53:44;;;;;;;1.35;0.40;;;20.90;71.10;;;;;;5050066;28;20028;-70
2023/03/18 07:56:10;;;;;;;1.30;0.22;;;20.90;71.20;;;;;;5051111;28;20074;-70
2023/03/18 07:58:37;;;;;;;0.73;0.30;;;20.90;71.30;;;;;;5050054;28;20489;-70
2023/03/18 08:01:03;;;;;;;0.75;0.22;;;20.90;71.40;;;;;;5049765;28;20021;-70
2023/03/18 08:03:29;;;;;;;0.68;0.30;;;20.90;71.40;;;;;;5049965;28;20108;-70
2023/03/18 08:05:55;;;;;;;0.43;0.20;;;20.80;71.40;;;;;;5051067;28;20125;-70
2023/03/18 08:08:21;;;;;;;0.20;0.13;;;20.80;71.40;;;;;;5050923;28;20045;-70
2023/03/18 08:10:47;;;;;;;1.05;0.32;;;20.80;71.50;;;;;;5033182;28;20009;-70
2023/03/18 08:13:12;;;;;;;1.05;0.28;;;20.80;71.60;;;;;;5051025;28;20100;-70
2023/03/18 08:15:39;;;;;;;0.65;0.22;;;20.70;71.50;;;;;;5033071;28;20016;-70
2023/03/18 08:18:04;;;;;;;0.50;0.20;;;20.70;71.60;;;;;;5049347;28;20067;-70
2023/03/18 08:20:30;;;;;;;0.75;0.35;;;20.70;71.60;;;;;;5050749;28;20049;-70
2023/03/18 08:22:56;;;;;;;0.73;0.20;;;20.70;71.70;;;;;;5050865;28;20031;-70
2023/03/18 08:25:22;;;;;;;2.22;0.20;;;20.60;71.60;;;;;;5050563;28;20023;-70
2023/03/18 08:27:48;;;;;;;1.80;0.60;;;20.60;71.70;;;;;;5050560;28;20508;-70
2023/03/18 08:30:15;;;;;;;1.60;0.20;;;20.60;71.80;;;;;;5049360;28;20021;-70
2023/03/18 08:32:41;;;;;;;0.57;0.30;;;20.60;71.80;;;;;;5050155;28;20048;-70
2023/03/18 08:35:08;;;;;;;1.17;0.20;;;20.60;71.80;;;;;;5051903;28;20013;-70
2023/03/18 08:37:34;;;;;;;0.50;0.30;;;20.50;71.80;;;;;;5053952;28;20025;-70
2023/03/18 08:40:00;;;;;;;4.40;0.32;;;20.50;71.80;;;;;;5049559;28;20031;-70
2023/03/18 08:42:26;;;;;;;3.10;0.52;;;20.50;71.90;;;;;;5049897;28;20021;-70
2023/03/18 08:44:52;;;;;;;1.08;0.30;;;20.50;71.90;;;;;;5049489;28;20032;-70
2023/03/18 08:47:18;;;;;;;0.15;0.10;;;20.50;72.00;;;;;;5051897;28;20036;-70
2023/03/18 08:49:45;;;;;;;1.02;0.30;;;20.50;72.10;;;;;;5053362;28;20017;-70
2023/03/18 08:52:10;;;;;;;0.30;0.20;;;20.50;72.10;;;;;;5052300;28;20044;-70
2023/03/18 08:54:36;;;;;;;1.30;0.35;;;20.40;72.10;;;;;;5050664;28;20021;-70
2023/03/18 08:57:02;;;;;;;0.38;0.20;;;20.40;72.20;;;;;;5052259;28;20017;-70
2023/03/18 08:59:28;;;;;;;0.88;0.20;;;20.40;72.20;;;;;;5052207;28;20516;-70
2023/03/18 09:01:53;;;;;;;1.70;0.22;;;20.40;72.20;;;;;;5034240;28;20164;-70
2023/03/18 09:04:19;;;;;;;1.63;0.20;;;20.40;72.30;;;;;;5052240;28;20021;-70
2023/03/18 09:06:45;;;;;;;1.70;0.20;;;20.30;72.40;;;;;;5052236;28;20047;-70
2023/03/18 09:09:11;;;;;;;1.40;0.28;;;20.30;72.30;;;;;;5050434;28;20171;-70
2023/03/18 09:11:38;;;;;;;0.30;0.20;;;20.30;72.30;;;;;;5051945;28;20032;-70
2023/03/18 09:14:04;;;;;;;0.70;0.35;;;20.30;72.40;;;;;;5034550;28;20373;-70
2023/03/18 09:16:29;;;;;;;1.00;0.13;;;20.20;72.40;;;;;;5050939;28;20503;-70
2023/03/18 09:18:55;;;;;;;0.73;0.20;;;20.30;72.50;;;;;;5050942;28;20040;-70
2023/03/18 09:21:21;;;;;;;0.30;0.20;;;20.30;72.50;;;;;;5050704;28;20028;-70
2023/03/18 09:23:48;;;;;;;0.43;0.20;;;20.20;72.50;;;;;;5051682;28;20025;-70
2023/03/18 09:26:14;;;;;;;0.63;0.30;;;20.20;72.50;;;;;;5050982;28;20098;-70
2023/03/18 09:28:39;;;;;;;0.32;0.13;;;20.20;72.60;;;;;;5050736;28;20025;-70
2023/03/18 09:31:05;;;;;;;0.20;0.20;;;20.20;72.50;;;;;;5051904;28;20473;-70
2023/03/18 09:33:31;;;;;;;1.17;0.28;;;20.20;72.70;;;;;;5050637;28;20026;-70
2023/03/18 09:35:56;;;;;;;1.52;0.20;;;20.20;72.60;;;;;;5035127;28;20100;-70
2023/03/18 09:38:22;;;;;;;0.68;0.20;;;20.10;72.60;;;;;;5064088;28;20075;-70
2023/03/18 09:41:01;;;;;;;1.08;0.10;;;20.10;72.60;;;;;;5047131;28;20497;-70
2023/03/18 09:43:54;;;;;;;0.57;0.30;;;20.10;72.70;;;;;;5048536;28;20029;-70
2023/03/18 09:46:36;;;;;;;0.22;0.10;;;20.10;72.70;;;;;;5049002;28;20036;-70
2023/03/18 09:49:23;;;;;;;1.05;0.55;;;20.10;72.70;;;;;;5053201;28;20027;-70
2023/03/18 09:52:12;;;;;;;1.90;0.50;;;20.00;69.80;;;;;;5050334;28;20044;-70
2023/03/18 09:54:57;;;;;;;1.85;0.52;;;19.70;68.10;;;;;;5051410;28;20071;-71
2023/03/18 09:57:25;;;;;;;2.10;0.52;;;19.60;67.70;;;;;;5051832;28;20421;-71
2023/03/18 10:00:19;;;;;;;2.65;0.70;;;19.40;66.00;;;;;;5052383;28;20319;-71
2023/03/18 10:02:53;;;;;;;2.17;0.52;;;19.30;65.50;;;;;;5048526;28;20037;-70
2023/03/18 10:05:45;;;;;;;2.22;0.70;;;19.20;65.10;;;;;;5051787;28;20515;-71
2023/03/18 10:08:59;;;;;;;2.25;0.52;;;19.10;64.90;;;;;;5051321;28;20095;-72
2023/03/18 10:11:47;;;;;;;2.60;0.40;;;19.30;65.70;;;;;;5019798;28;20116;-70
2023/03/18 10:14:31;;;;;;;1.95;0.35;;;19.60;65.60;;;;;;5052523;28;20035;-70
2023/03/18 10:17:12;;;;;;;1.30;0.70;;;19.70;65.10;;;;;;5053635;28;20013;-70
2023/03/18 10:19:37;;;;;;;1.63;0.45;;;19.80;65.10;;;;;;5053049;28;20017;-70
2023/03/18 10:22:10;;;;;;;1.42;0.40;;;19.80;65.00;;;;;;5035228;28;20029;-70
2023/03/18 10:24:49;;;;;;;1.70;0.50;;;19.90;65.20;;;;;;5053599;28;20091;-70
2023/03/18 10:27:24;;;;;;;1.90;0.43;;;19.90;65.30;;;;;;5051759;28;20388;-71
2023/03/18 10:30:18;;;;;;;0.88;0.40;;;19.90;65.30;;;;;;5050505;28;20047;-70
2023/03/18 10:33:04;;;;;;;1.40;0.45;;;20.00;65.40;;;;;;5050339;28;20040;-70
2023/03/18 10:35:37;;;;;;;0.70;0.40;;;20.10;65.70;;;;;;5052203;28;20108;-70
2023/03/18 10:38:10;;;;;;;0.40;0.20;;;20.10;65.30;;;;;;5035955;28;20049;-70
2023/03/18 10:40:38;;;;;;;1.58;0.20;;;20.10;65.30;;;;;;5051356;28;20481;-70
2023/03/18 10:43:11;;;;;;;0.90;0.20;;;20.10;65.20;;;;;;5050917;28;20580;-70
2023/03/18 10:45:37;;;;;;;0.55;0.20;;;20.10;64.90;;;;;;5051372;28;20112;-70
2023/03/18 10:48:15;;;;;;;1.42;0.30;;;20.20;65.10;;;;;;5034671;28;20465;-69
2023/03/18 10:51:08;;;;;;;0.22;0.20;;;20.20;64.70;;;;;;5050599;28;20033;-69
2023/03/18 10:54:11;;;;;;;0.63;0.25;;;20.30;64.70;;;;;;5030065;28;20045;-69
2023/03/18 10:56:36;;;;;;;0.90;0.50;;;20.30;64.20;;;;;;5027288;28;20033;-69
2023/03/18 10:59:12;;;;;;;0.40;0.30;;;20.30;64.30;;;;;;4997448;28;20030;-69
2023/03/18 11:01:38;;;;;;;0.88;0.30;;;20.30;64.10;;;;;;5014153;28;20026;-71
2023/03/18 11:04:05;;;;;;;1.30;0.30;;;20.40;64.10;;;;;;4997324;28;20036;-71
2023/03/18 11:06:48;;;;;;;0.20;0.20;;;20.40;64.10;;;;;;5013305;28;20032;-71
2023/03/18 11:09:21;;;;;;;0.40;0.30;;;20.40;63.80;;;;;;5013891;28;20091;-71
2023/03/18 11:11:55;;;;;;;0.60;0.30;;;20.40;63.80;;;;;;5013606;28;20033;-71
2023/03/18 11:14:21;;;;;;;0.47;0.20;;;20.50;63.90;;;;;;5013429;28;20191;-72
2023/03/18 11:16:50;;;;;;;0.55;0.30;;;20.50;63.50;;;;;;4997376;28;20116;-71
2023/03/18 11:19:44;;;;;;;0.90;0.20;;;20.50;63.60;;;;;;5012975;28;20025;-71
2023/03/18 11:22:14;;;;;;;0.65;0.30;;;20.50;63.40;;;;;;5015098;28;20133;-71
2023/03/18 11:24:43;;;;;;;0.47;0.20;;;20.50;63.70;;;;;;4996467;28;20460;-71
2023/03/18 11:27:15;;;;;;;0.40;0.20;;;20.50;63.50;;;;;;5013545;28;20037;-71
2023/03/18 11:29:44;;;;;;;0.38;0.17;;;20.50;63.40;;;;;;5034588;28;20111;-71
2023/03/18 11:32:30;;;;;;;0.43;0.10;;;20.50;63.30;;;;;;5050684;28;20021;-71
2023/03/18 11:34:56;;;;;;;0.93;0.13;;;20.50;63.30;;;;;;5051796;28;20015;-71
2023/03/18 11:37:29;;;;;;;0.60;0.30;;;20.50;63.20;;;;;;5034322;28;20032;-71
2023/03/18 11:40:05;;;;;;;;;;;20.60;63.40;;;;;;5050920;28;20017;-71
2023/03/18 11:42:31;;;;;;;0.30;0.10;;;20.60;63.30;;;;;;5050245;28;19905;-71
2023/03/18 11:44:58;;;;;;;0.63;0.20;;;20.60;63.30;;;;;;5033961;28;20096;-71
2023/03/18 11:47:29;;;;;;;0.20;0.10;;;20.60;63.30;;;;;;5034049;28;20116;-70
2023/03/18 11:49:54;;;;;;;0.32;0.20;;;20.60;63.20;;;;;;5033972;28;20496;-70
2023/03/18 11:52:35;;;;;;;0.70;0.30;;;20.60;63.30;;;;;;5033642;28;20055;-70
2023/03/18 11:55:35;;;;;;;0.30;0.10;;;20.60;63.40;;;;;;5051155;28;20020;-70
2023/03/18 11:58:22;;;;;;;0.40;0.20;;;20.60;63.30;;;;;;5051286;28;20100;-70
2023/03/18 12:01:26;;;;;;;0.25;0.20;;;20.70;63.30;;;;;;5051649;28;20025;-71
2023/03/18 12:03:55;;;;;;;0.50;0.20;;;20.70;63.30;;;;;;5049174;28;20021;-70
2023/03/18 12:06:22;;;;;;;0.45;0.35;;;20.70;63.30;;;;;;5050264;28;20047;-71
2023/03/18 12:09:03;;;;;;;0.35;0.20;;;20.60;64.20;;;;;;5050099;28;20025;-71
2023/03/18 12:11:38;;;;;;;0.03;0.03;;;20.70;63.20;;;;;;5050831;28;20037;-71
2023/03/18 12:14:18;;;;;;;0.52;0.20;;;20.70;63.10;;;;;;5051110;28;20017;-71
2023/03/18 12:16:50;;;;;;;0.52;0.20;;;20.70;63.10;;;;;;5050500;28;20120;-71
2023/03/18 12:19:28;;;;;;;0.10;0.10;;;20.70;63.10;;;;;;5049663;28;20484;-71
2023/03/18 12:22:06;;;;;;;0.17;0.17;;;20.70;62.90;;;;;;5034374;28;20055;-73
2023/03/18 12:25:06;;;;;;;0.40;0.20;;;20.70;62.90;;;;;;5049663;28;20021;-73
2023/03/18 12:27:35;;;;;;;0.30;0.10;;;20.80;62.90;;;;;;5035369;28;20499;-74
2023/03/18 12:30:42;;;;;;;0.10;0.10;;;20.80;62.80;;;;;;5050504;28;20013;-73
2023/03/18 12:33:35;;;;;;;0.30;0.10;;;20.80;62.80;;;;;;5042799;28;20496;-73
2023/03/18 12:36:01;;;;;;;0.10;0.10;;;20.80;62.80;;;;;;5050512;28;20021;-73
2023/03/18 12:38:54;;;;;;;0.15;0.10;;;20.80;63.00;;;;;;5050914;28;20388;-75
2023/03/18 12:41:24;;;;;;;;;;;20.80;62.80;;;;;;5051309;28;20065;-75
2023/03/18 12:44:17;;;;;;;0.52;0.10;;;20.80;62.90;;;;;;5081327;28;19939;-74
2023/03/18 12:46:46;;;;;;;0.35;0.30;;;20.80;63.00;;;;;;5048824;28;20037;-75
2023/03/18 12:49:21;;;;;;;0.30;0.20;;;20.80;63.60;;;;;;5050474;28;20025;-73
2023/03/18 12:51:59;;;;;;;0.10;0.10;;;20.90;62.70;;;;;;5050296;28;20041;-69
2023/03/18 12:54:28;;;;;;;3.67;0.22;;;20.80;63.40;;;;;;5036598;28;20023;-69
2023/03/18 12:57:07;;;;;;;1.90;0.30;;;20.70;63.50;;;;;;5049482;28;20027;-69
2023/03/18 12:59:39;;;;;;;1.00;0.20;;;20.60;63.70;;;;;;5048988;28;20017;-69